createdAt,value
2018-01-30T00:02:14.160Z,7.30
2018-01-30T00:04:41.841Z,7.30
2018-01-30T00:07:09.533Z,7.30
2018-01-30T00:09:37.164Z,7.30
2018-01-30T00:12:04.817Z,7.20
2018-01-30T00:14:32.507Z,7.30
2018-01-30T00:17:00.917Z,7.20
2018-01-30T00:19:28.619Z,7.20
2018-01-30T00:21:56.328Z,7.20
2018-01-30T00:24:24.000Z,7.20
2018-01-30T00:26:51.665Z,7.30
2018-01-30T00:29:19.343Z,7.30
2018-01-30T00:31:46.996Z,7.40
2018-01-30T00:34:14.665Z,7.40
2018-01-30T00:36:42.346Z,7.40
2018-01-30T00:39:10.084Z,7.40
2018-01-30T00:41:38.395Z,7.40
2018-01-30T00:44:06.049Z,7.40
2018-01-30T00:46:33.679Z,7.50
2018-01-30T00:49:01.344Z,7.50
2018-01-30T00:51:29.012Z,7.50
2018-01-30T00:53:56.664Z,7.50
2018-01-30T00:56:24.338Z,7.50
2018-01-30T00:58:52.009Z,7.50
2018-01-30T01:01:19.749Z,7.60
2018-01-30T01:03:47.461Z,7.60
2018-01-30T01:06:15.915Z,7.60
2018-01-30T01:08:43.554Z,7.60
2018-01-30T01:11:11.253Z,7.60
2018-01-30T01:13:39.719Z,7.60
2018-01-30T01:16:08.136Z,7.70
2018-01-30T01:18:35.814Z,7.70
2018-01-30T01:21:03.531Z,7.60
2018-01-30T01:23:31.934Z,7.70
2018-01-30T01:25:59.746Z,7.70
2018-01-30T01:28:27.420Z,7.70
2018-01-30T01:30:55.823Z,7.70
2018-01-30T01:33:23.483Z,7.80
2018-01-30T01:35:51.156Z,7.80
2018-01-30T01:38:18.819Z,7.70
2018-01-30T01:40:46.486Z,7.80
2018-01-30T01:43:14.158Z,7.80
2018-01-30T01:45:41.803Z,7.80
2018-01-30T01:48:09.464Z,7.70
2018-01-30T01:50:37.893Z,7.80
2018-01-30T01:53:05.551Z,7.70
2018-01-30T01:55:33.235Z,7.70
2018-01-30T01:58:01.663Z,7.60
2018-01-30T02:00:29.316Z,7.60
2018-01-30T02:02:56.984Z,7.70
2018-01-30T02:05:24.709Z,7.60
2018-01-30T02:07:52.343Z,7.60
2018-01-30T02:10:20.790Z,7.60
2018-01-30T02:12:48.479Z,7.60
2018-01-30T02:15:16.106Z,7.60
2018-01-30T02:17:43.790Z,7.70
2018-01-30T02:20:11.548Z,7.60
2018-01-30T02:22:39.165Z,7.70
2018-01-30T02:25:06.839Z,7.70
2018-01-30T02:27:34.509Z,7.70
2018-01-30T02:30:02.235Z,7.70
2018-01-30T02:32:29.896Z,7.70
2018-01-30T02:34:57.578Z,7.70
2018-01-30T02:37:25.208Z,7.70
2018-01-30T02:39:52.888Z,7.70
2018-01-30T02:42:20.579Z,7.60
2018-01-30T02:44:49.027Z,7.60
2018-01-30T02:47:16.711Z,7.60
2018-01-30T02:49:44.388Z,7.60
2018-01-30T02:52:12.045Z,7.60
2018-01-30T02:54:39.730Z,7.60
2018-01-30T02:57:08.208Z,7.70
2018-01-30T02:59:36.626Z,7.60
2018-01-30T03:02:04.312Z,7.60
2018-01-30T03:04:32.000Z,7.60
2018-01-30T03:06:59.632Z,7.60
2018-01-30T03:09:27.299Z,7.60
2018-01-30T03:11:54.984Z,7.60
2018-01-30T03:14:22.633Z,7.50
2018-01-30T03:16:50.321Z,7.60
2018-01-30T03:19:18.770Z,7.60
2018-01-30T03:21:46.404Z,7.60
2018-01-30T03:24:14.094Z,7.60
2018-01-30T03:26:41.801Z,7.60
2018-01-30T03:29:10.213Z,7.50
2018-01-30T03:31:37.890Z,7.50
2018-01-30T03:34:05.595Z,7.50
2018-01-30T03:36:33.253Z,7.50
2018-01-30T03:39:00.928Z,7.40
2018-01-30T03:41:28.608Z,7.40
2018-01-30T03:43:56.288Z,7.40
2018-01-30T03:46:23.953Z,7.40
2018-01-30T03:48:51.641Z,7.40
2018-01-30T03:51:20.061Z,7.40
2018-01-30T03:53:47.737Z,7.40
2018-01-30T03:56:15.431Z,7.40
2018-01-30T03:58:43.833Z,7.40
2018-01-30T04:01:11.480Z,7.40
2018-01-30T04:03:39.930Z,7.40
2018-01-30T04:06:07.589Z,7.40
2018-01-30T04:08:35.258Z,7.40
2018-01-30T04:11:02.929Z,7.40
2018-01-30T04:13:31.327Z,7.30
2018-01-30T04:15:59.006Z,7.30
2018-01-30T04:18:26.692Z,7.40
2018-01-30T04:20:54.328Z,7.40
2018-01-30T04:23:21.980Z,7.40
2018-01-30T04:25:49.663Z,7.30
2018-01-30T04:28:17.300Z,7.30
2018-01-30T04:30:45.014Z,7.30
2018-01-30T04:33:12.694Z,7.30
2018-01-30T04:35:41.091Z,7.20
2018-01-30T04:38:08.764Z,7.20
2018-01-30T04:40:36.429Z,7.30
2018-01-30T04:43:04.069Z,7.30
2018-01-30T04:45:31.754Z,7.30
2018-01-30T04:47:59.432Z,7.30
2018-01-30T04:50:27.076Z,7.30
2018-01-30T04:52:54.745Z,7.30
2018-01-30T04:55:22.426Z,7.20
2018-01-30T04:57:50.071Z,7.20
2018-01-30T05:00:17.739Z,7.10
2018-01-30T05:02:45.422Z,7.10
2018-01-30T05:05:13.063Z,7.10
2018-01-30T05:07:40.744Z,6.90
2018-01-30T05:10:08.441Z,6.80
2018-01-30T05:12:36.153Z,6.90
2018-01-30T05:15:03.874Z,6.90
2018-01-30T05:17:31.590Z,6.80
2018-01-30T05:19:59.238Z,6.80
2018-01-30T05:22:26.926Z,6.80
2018-01-30T05:24:55.368Z,6.70
2018-01-30T05:27:23.006Z,6.70
2018-01-30T05:29:50.681Z,6.60
2018-01-30T05:32:18.373Z,6.60
2018-01-30T05:34:46.812Z,6.60
2018-01-30T05:37:14.490Z,6.50
2018-01-30T05:39:42.148Z,6.50
2018-01-30T05:42:09.797Z,6.50
2018-01-30T05:44:37.485Z,6.40
2018-01-30T05:47:05.160Z,6.40
2018-01-30T05:49:32.806Z,6.40
2018-01-30T05:52:00.489Z,6.40
2018-01-30T05:54:28.940Z,6.30
2018-01-30T05:56:56.568Z,6.30
2018-01-30T05:59:24.244Z,6.40
2018-01-30T06:01:51.913Z,6.50
2018-01-30T06:04:19.553Z,6.50
2018-01-30T06:06:48.002Z,6.30
2018-01-30T06:09:15.692Z,6.30
2018-01-30T06:11:43.337Z,6.30
2018-01-30T06:14:11.012Z,6.30
2018-01-30T06:16:38.681Z,6.30
2018-01-30T06:19:06.527Z,6.30
2018-01-30T06:21:34.235Z,6.30
2018-01-30T06:24:01.975Z,6.30
2018-01-30T06:26:29.600Z,6.30
2018-01-30T06:28:57.271Z,6.30
2018-01-30T06:31:24.968Z,6.30
2018-01-30T06:33:52.609Z,6.30
2018-01-30T06:36:20.284Z,6.20
2018-01-30T06:38:47.952Z,6.10
2018-01-30T06:41:15.596Z,6.10
2018-01-30T06:43:43.247Z,6.10
2018-01-30T06:46:10.908Z,6.10
2018-01-30T06:48:38.575Z,6.10
2018-01-30T06:51:06.264Z,6.10
2018-01-30T06:53:33.957Z,6.10
2018-01-30T06:56:01.601Z,6.20
2018-01-30T06:58:30.053Z,6.20
2018-01-30T07:00:57.721Z,6.20
2018-01-30T07:03:25.357Z,6.20
2018-01-30T07:05:53.013Z,6.20
2018-01-30T07:08:20.895Z,6.10
2018-01-30T07:10:48.527Z,6.10
2018-01-30T07:13:16.219Z,6.00
2018-01-30T07:15:43.885Z,6.00
2018-01-30T07:18:11.534Z,6.00
2018-01-30T07:20:39.612Z,6.10
2018-01-30T07:23:07.377Z,6.10
2018-01-30T07:25:35.021Z,6.20
2018-01-30T07:28:02.696Z,6.30
2018-01-30T07:30:30.356Z,6.50
2018-01-30T07:32:57.989Z,6.50
2018-01-30T07:35:25.657Z,6.60
2018-01-30T07:37:53.333Z,6.70
2018-01-30T07:40:21.006Z,6.80
2018-01-30T07:42:49.462Z,7.10
2018-01-30T07:45:17.228Z,7.10
2018-01-30T07:47:44.880Z,7.20
2018-01-30T07:50:12.584Z,7.50
2018-01-30T07:52:41.040Z,7.50
2018-01-30T07:55:08.701Z,7.50
2018-01-30T07:57:36.383Z,7.60
2018-01-30T08:00:04.884Z,7.70
2018-01-30T08:02:32.520Z,7.60
2018-01-30T08:05:00.232Z,7.70
2018-01-30T08:07:27.902Z,7.80
2018-01-30T08:09:55.565Z,7.80
2018-01-30T08:12:23.222Z,7.80
2018-01-30T08:14:50.955Z,7.90
2018-01-30T08:17:18.628Z,8.10
2018-01-30T08:19:46.346Z,8.30
2018-01-30T08:22:14.776Z,8.70
2018-01-30T08:24:42.424Z,8.70
2018-01-30T08:27:10.138Z,8.90
2018-01-30T08:29:38.574Z,8.70
2018-01-30T08:32:06.246Z,8.70
2018-01-30T08:34:34.068Z,8.60
2018-01-30T08:37:01.738Z,8.50
2018-01-30T08:39:29.412Z,8.40
2018-01-30T08:41:57.106Z,8.20
2018-01-30T08:44:25.169Z,8.20
2018-01-30T08:46:52.811Z,8.10
2018-01-30T08:49:20.491Z,8.10
2018-01-30T08:51:48.162Z,8.00
2018-01-30T08:54:16.605Z,7.90
2018-01-30T08:56:44.297Z,7.80
2018-01-30T08:59:11.988Z,7.70
2018-01-30T09:01:39.615Z,7.60
2018-01-30T09:04:07.298Z,7.50
2018-01-30T09:06:35.785Z,7.40
2018-01-30T09:09:03.564Z,7.40
2018-01-30T09:11:31.320Z,7.30
2018-01-30T09:13:59.015Z,7.20
2018-01-30T09:16:26.672Z,7.20
2018-01-30T09:18:54.342Z,7.20
2018-01-30T09:21:22.059Z,7.10
2018-01-30T09:23:49.717Z,7.10
2018-01-30T09:26:17.393Z,7.10
2018-01-30T09:28:45.084Z,7.20
2018-01-30T09:31:12.729Z,7.20
2018-01-30T09:33:41.197Z,7.10
2018-01-30T09:36:08.933Z,7.10
2018-01-30T09:38:36.609Z,7.10
2018-01-30T09:41:04.262Z,7.10
2018-01-30T09:43:31.978Z,7.10
2018-01-30T09:45:59.647Z,7.20
2018-01-30T09:48:27.340Z,7.20
2018-01-30T09:50:55.062Z,7.30
2018-01-30T09:53:22.704Z,7.40
2018-01-30T09:55:50.410Z,7.40
2018-01-30T09:58:18.879Z,7.40
2018-01-30T10:00:47.361Z,7.40
2018-01-30T10:03:15.818Z,7.40
2018-01-30T10:05:43.504Z,7.40
2018-01-30T10:08:11.937Z,7.40
2018-01-30T10:10:39.614Z,7.40
2018-01-30T10:13:07.295Z,7.40
2018-01-30T10:15:35.744Z,7.30
2018-01-30T10:18:03.453Z,7.30
2018-01-30T10:20:31.897Z,7.40
2018-01-30T10:22:59.642Z,7.40
2018-01-30T10:25:27.321Z,7.50
2018-01-30T10:27:54.971Z,7.70
2018-01-30T10:30:22.645Z,7.90
2018-01-30T10:32:50.308Z,8.10
2018-01-30T10:35:18.237Z,8.20
2018-01-30T10:37:45.911Z,8.30
2018-01-30T10:40:13.594Z,8.20
2018-01-30T10:42:41.356Z,8.10
2018-01-30T10:45:08.986Z,8.10
2018-01-30T10:47:36.648Z,8.10
2018-01-30T10:50:04.388Z,8.10
2018-01-30T10:52:32.005Z,8.10
2018-01-30T10:54:59.688Z,8.20
2018-01-30T10:57:28.237Z,8.30
2018-01-30T10:59:55.873Z,8.30
2018-01-30T11:02:23.560Z,8.30
2018-01-30T11:04:51.278Z,8.20
2018-01-30T11:07:19.003Z,8.30
2018-01-30T11:09:47.424Z,8.20
2018-01-30T11:12:15.098Z,8.20
2018-01-30T11:14:42.738Z,8.10
2018-01-30T11:17:10.452Z,8.10
2018-01-30T11:19:38.129Z,8.10
2018-01-30T11:22:06.603Z,8.00
2018-01-30T11:24:35.125Z,8.00
2018-01-30T11:27:02.810Z,8.00
2018-01-30T11:29:30.469Z,7.90
2018-01-30T11:31:58.516Z,7.80
2018-01-30T11:34:26.208Z,7.80
2018-01-30T11:36:53.852Z,7.80
2018-01-30T11:39:21.516Z,7.80
2018-01-30T11:41:49.197Z,7.80
2018-01-30T11:44:16.858Z,7.80
2018-01-30T11:46:44.547Z,7.70
2018-01-30T11:49:13.059Z,7.50
2018-01-30T11:51:40.694Z,7.50
2018-01-30T11:54:08.370Z,7.50
2018-01-30T11:56:36.563Z,7.40
2018-01-30T11:59:04.251Z,7.30
2018-01-30T12:01:31.964Z,7.30
2018-01-30T12:03:59.628Z,7.20
2018-01-30T12:06:27.252Z,7.20
2018-01-30T12:08:54.946Z,7.10
2018-01-30T12:11:22.633Z,7.10
2018-01-30T12:13:50.293Z,7.10
2018-01-30T12:16:17.973Z,7.00
2018-01-30T12:18:45.751Z,6.90
2018-01-30T12:21:14.152Z,6.70
2018-01-30T12:23:41.827Z,6.70
2018-01-30T12:26:09.492Z,6.80
2018-01-30T12:28:37.144Z,6.80
2018-01-30T12:31:04.838Z,6.70
2018-01-30T12:33:32.514Z,6.70
2018-01-30T12:36:00.195Z,6.70
2018-01-30T12:38:27.877Z,6.70
2018-01-30T12:40:55.569Z,6.60
2018-01-30T12:43:23.219Z,6.70
2018-01-30T12:45:50.899Z,6.60
2018-01-30T12:48:18.565Z,6.60
2018-01-30T12:50:46.207Z,6.50
2018-01-30T12:53:13.917Z,6.50
2018-01-30T12:55:42.340Z,6.70
2018-01-30T12:58:10.053Z,6.70
2018-01-30T13:00:38.505Z,6.80
2018-01-30T13:03:06.191Z,6.80
2018-01-30T13:05:33.837Z,6.80
2018-01-30T13:08:01.518Z,6.80
2018-01-30T13:10:29.198Z,6.90
2018-01-30T13:12:56.849Z,7.00
2018-01-30T13:15:25.322Z,7.10
2018-01-30T13:17:53.773Z,7.10
2018-01-30T13:20:21.409Z,7.10
2018-01-30T13:22:49.087Z,7.10
2018-01-30T13:25:18.570Z,7.20
2018-01-30T13:27:46.213Z,7.20
2018-01-30T13:30:13.896Z,7.30
2018-01-30T13:32:41.582Z,7.30
2018-01-30T13:35:09.222Z,7.30
2018-01-30T13:37:36.957Z,7.30
2018-01-30T13:40:05.378Z,7.40
2018-01-30T13:42:33.085Z,7.40
2018-01-30T13:45:01.529Z,7.40
2018-01-30T13:47:29.242Z,7.40
2018-01-30T13:49:56.906Z,7.30
2018-01-30T13:52:24.574Z,7.30
2018-01-30T13:54:52.240Z,7.30
2018-01-30T13:57:20.019Z,7.30
2018-01-30T13:59:47.692Z,7.30
2018-01-30T14:02:15.362Z,7.30
2018-01-30T14:04:43.768Z,7.30
2018-01-30T14:07:11.446Z,7.30
2018-01-30T14:09:39.121Z,7.30
2018-01-30T14:12:06.754Z,7.30
2018-01-30T14:14:34.425Z,7.30
2018-01-30T14:17:02.189Z,7.30
2018-01-30T14:19:29.881Z,7.20
2018-01-30T14:21:57.606Z,7.30
2018-01-30T14:24:25.270Z,7.30
2018-01-30T14:26:52.914Z,7.30
2018-01-30T14:29:20.589Z,7.40
2018-01-30T14:31:48.272Z,7.30
2018-01-30T14:34:15.925Z,7.40
2018-01-30T14:36:43.597Z,7.40
2018-01-30T14:39:11.256Z,7.40
2018-01-30T14:41:38.892Z,7.40
2018-01-30T14:44:06.630Z,7.40
2018-01-30T14:46:35.065Z,7.40
2018-01-30T14:49:02.716Z,7.40
2018-01-30T14:51:30.385Z,7.40
2018-01-30T14:53:58.079Z,7.40
2018-01-30T14:56:27.621Z,7.30
2018-01-30T14:58:55.322Z,7.30
2018-01-30T15:01:22.984Z,7.20
2018-01-30T15:03:50.668Z,7.20
2018-01-30T15:06:19.097Z,7.20
2018-01-30T15:08:46.777Z,7.20
2018-01-30T15:11:14.433Z,7.20
2018-01-30T15:13:42.100Z,7.20
2018-01-30T15:16:09.764Z,7.20
2018-01-30T15:18:37.392Z,7.20
2018-01-30T15:21:05.060Z,7.20
2018-01-30T15:23:32.761Z,7.10
2018-01-30T15:26:01.199Z,7.10
2018-01-30T15:28:28.944Z,7.00
2018-01-30T15:30:57.373Z,7.10
2018-01-30T15:33:25.041Z,7.00
2018-01-30T15:35:53.487Z,6.90
2018-01-30T15:38:21.182Z,6.90
2018-01-30T15:40:49.589Z,6.90
2018-01-30T15:43:17.273Z,6.90
2018-01-30T15:45:44.936Z,6.90
2018-01-30T15:48:12.603Z,6.80
2018-01-30T15:50:40.268Z,6.80
2018-01-30T15:53:07.973Z,6.80
2018-01-30T15:55:36.381Z,6.80
2018-01-30T15:58:04.436Z,6.70
2018-01-30T16:00:32.196Z,6.80
2018-01-30T16:02:59.845Z,6.80
2018-01-30T16:05:27.504Z,6.80
2018-01-30T16:07:55.942Z,6.70
2018-01-30T16:10:23.618Z,6.70
2018-01-30T16:12:51.300Z,6.70
2018-01-30T16:15:19.777Z,6.60
2018-01-30T16:17:48.176Z,6.70
2018-01-30T16:20:15.840Z,6.60
2018-01-30T16:22:43.521Z,6.60
2018-01-30T16:25:11.161Z,6.60
2018-01-30T16:27:38.845Z,6.60
2018-01-30T16:30:06.548Z,6.60
2018-01-30T16:32:34.966Z,6.50
2018-01-30T16:35:02.652Z,6.50
2018-01-30T16:37:30.337Z,6.50
2018-01-30T16:39:57.968Z,6.40
2018-01-30T16:42:25.661Z,6.40
2018-01-30T16:44:53.345Z,6.40
2018-01-30T16:47:20.977Z,6.30
2018-01-30T16:49:48.646Z,6.30
2018-01-30T16:52:17.122Z,6.20
2018-01-30T16:54:44.752Z,6.20
2018-01-30T16:57:12.435Z,6.20
2018-01-30T16:59:40.404Z,6.20
2018-01-30T17:02:08.092Z,6.20
2018-01-30T17:04:36.577Z,6.00
2018-01-30T17:07:04.312Z,6.00
2018-01-30T17:09:32.714Z,6.00
2018-01-30T17:12:00.384Z,6.00
2018-01-30T17:14:28.082Z,5.90
2018-01-30T17:16:55.753Z,5.90
2018-01-30T17:19:23.436Z,5.90
2018-01-30T17:21:51.887Z,5.80
2018-01-30T17:24:19.527Z,5.70
2018-01-30T17:26:47.293Z,5.80
2018-01-30T17:29:15.001Z,5.80
2018-01-30T17:31:43.504Z,5.70
2018-01-30T17:34:11.273Z,5.70
2018-01-30T17:36:38.943Z,5.60
2018-01-30T17:39:06.938Z,5.50
2018-01-30T17:41:34.633Z,5.40
2018-01-30T17:44:03.109Z,5.30
2018-01-30T17:46:31.561Z,5.20
2018-01-30T17:48:59.244Z,5.20
2018-01-30T17:51:26.992Z,5.10
2018-01-30T17:53:55.080Z,5.10
2018-01-30T17:56:23.797Z,5.00
2018-01-30T17:58:51.696Z,4.90
2018-01-30T18:01:19.835Z,4.90
2018-01-30T18:03:47.928Z,4.90
2018-01-30T18:06:15.888Z,4.80
2018-01-30T18:08:43.791Z,4.80
2018-01-30T18:11:11.766Z,4.70
2018-01-30T18:13:40.547Z,4.50
2018-01-30T18:16:09.214Z,4.50
2018-01-30T18:18:38.475Z,4.40
2018-01-30T18:21:06.227Z,4.40
2018-01-30T18:23:33.961Z,4.40
2018-01-30T18:26:02.476Z,4.30
2018-01-30T18:28:30.140Z,4.30
2018-01-30T18:30:57.844Z,4.30
2018-01-30T18:33:25.924Z,4.20
2018-01-30T18:35:55.659Z,4.30
2018-01-30T18:38:23.841Z,4.30
2018-01-30T18:40:51.784Z,4.30
2018-01-30T18:43:20.364Z,4.40
2018-01-30T18:45:48.574Z,4.40
2018-01-30T18:48:16.967Z,4.50
2018-01-30T18:50:45.156Z,4.60
2018-01-30T18:53:13.103Z,4.60
2018-01-30T18:55:40.959Z,4.60
2018-01-30T18:58:09.675Z,4.70
2018-01-30T19:00:37.718Z,4.70
2018-01-30T19:03:06.049Z,4.70
2018-01-30T19:05:34.463Z,4.60
2018-01-30T19:08:02.418Z,4.60
2018-01-30T19:10:30.542Z,4.60
2018-01-30T19:12:58.721Z,4.50
2018-01-30T19:15:27.252Z,4.60
2018-01-30T19:17:56.435Z,4.50
2018-01-30T19:20:24.639Z,4.50
2018-01-30T19:22:52.575Z,4.60
2018-01-30T19:25:20.546Z,4.60
2018-01-30T19:27:48.656Z,4.60
2018-01-30T19:30:16.478Z,4.60
2018-01-30T19:32:44.607Z,4.50
2018-01-30T19:35:12.754Z,4.60
2018-01-30T19:37:40.949Z,4.60
2018-01-30T19:40:09.898Z,4.60
2018-01-30T19:42:38.216Z,4.60
2018-01-30T19:45:06.915Z,4.60
2018-01-30T19:47:35.055Z,4.60
2018-01-30T19:50:03.179Z,4.60
2018-01-30T19:52:31.036Z,4.60
2018-01-30T19:54:59.554Z,4.60
2018-01-30T19:57:27.495Z,4.50
2018-01-30T19:59:56.155Z,4.60
2018-01-30T20:02:24.472Z,4.50
2018-01-30T20:04:54.490Z,4.60
2018-01-30T20:07:22.770Z,4.60
2018-01-30T20:09:50.742Z,4.70
2018-01-30T20:12:19.226Z,4.70
2018-01-30T20:14:47.328Z,4.70
2018-01-30T20:17:22.019Z,4.70
2018-01-30T20:19:50.034Z,4.70
2018-01-30T20:22:18.095Z,4.70
2018-01-30T20:24:46.166Z,4.70
2018-01-30T20:27:14.244Z,4.70
2018-01-30T20:29:42.359Z,4.70
2018-01-30T20:32:10.644Z,4.60
2018-01-30T20:34:38.886Z,4.70
2018-01-30T20:37:07.413Z,4.70
2018-01-30T20:39:36.174Z,4.70
2018-01-30T20:42:04.066Z,4.70
2018-01-30T20:44:32.794Z,4.80
2018-01-30T20:47:01.124Z,4.80
2018-01-30T20:49:29.188Z,4.90
2018-01-30T20:51:58.162Z,4.90
2018-01-30T20:54:26.274Z,4.90
2018-01-30T20:56:54.454Z,5.00
2018-01-30T20:59:23.223Z,5.00
2018-01-30T21:01:52.427Z,5.00
2018-01-30T21:04:20.270Z,5.00
2018-01-30T21:06:48.986Z,5.00
2018-01-30T21:09:16.807Z,5.00
2018-01-30T21:11:45.401Z,5.00
2018-01-30T21:14:13.289Z,5.00
2018-01-30T21:16:41.024Z,5.00
2018-01-30T21:19:08.831Z,5.00
2018-01-30T21:21:36.544Z,5.10
2018-01-30T21:24:05.086Z,5.10
2018-01-30T21:26:32.896Z,5.10
2018-01-30T21:29:01.472Z,5.10
2018-01-30T21:31:29.323Z,5.10
2018-01-30T21:33:57.174Z,5.10
2018-01-30T21:36:25.135Z,5.10
2018-01-30T21:38:54.133Z,5.10
2018-01-30T21:41:21.966Z,5.10
2018-01-30T21:43:49.773Z,5.00
2018-01-30T21:46:18.520Z,4.90
2018-01-30T21:48:46.616Z,5.00
2018-01-30T21:51:14.344Z,4.90
2018-01-30T21:53:42.071Z,4.90
2018-01-30T21:56:10.536Z,4.90
2018-01-30T21:58:38.237Z,4.90
2018-01-30T22:01:06.084Z,4.90
2018-01-30T22:03:35.033Z,4.90
2018-01-30T22:06:03.512Z,4.90
2018-01-30T22:08:31.366Z,4.90
2018-01-30T22:10:59.161Z,4.90
2018-01-30T22:13:27.795Z,4.90
2018-01-30T22:15:55.528Z,4.90
2018-01-30T22:18:23.281Z,4.90
2018-01-30T22:20:51.101Z,4.90
2018-01-30T22:23:18.930Z,4.90
2018-01-30T22:25:46.693Z,4.90
2018-01-30T22:28:14.513Z,4.90
2018-01-30T22:30:42.392Z,5.00
2018-01-30T22:33:10.220Z,5.00
2018-01-30T22:35:38.892Z,5.10
2018-01-30T22:38:07.433Z,5.10
2018-01-30T22:40:36.036Z,5.10
2018-01-30T22:43:03.765Z,5.10
2018-01-30T22:45:32.357Z,5.10
